Time;durP1;ratioP1;P1;durP2;ratioP2;P2;SDS_P1;SDS_P2;PMS_P1;PMS_P2;Temp;Humidity;BMP_temperature;BMP_pressure;BME280_temperature;BME280_humidity;BME280_pressure;Samples;Min_cycle;Max_cycle;Signal;HPM_P1;HPM_P2
2022/07/27 06:35:04;;;;;;;5.05;1.23;;;;;;;;;;509885;28;1233;-83
2022/07/27 06:35:20;;;;;;;6.55;1.23;;;;;;;;;;513914;28;1195;-83
2022/07/27 06:35:35;;;;;;;5.93;1.40;;;;;;;;;;511405;28;1470;-83
2022/07/27 06:35:51;;;;;;;5.50;1.43;;;;;;;;;;509418;29;1405;-83
2022/07/27 06:36:07;;;;;;;5.25;1.40;;;;;;;;;;509776;29;1274;-83
2022/07/27 06:36:23;;;;;;;4.10;1.30;;;;;;;;;;507947;29;1402;-83
2022/07/27 06:36:41;;;;;;;5.22;1.25;;;;;;;;;;509222;29;1503;-83
2022/07/27 06:36:58;;;;;;;6.22;1.30;;;;;;;;;;508959;29;1304;-83
2022/07/27 06:37:14;;;;;;;5.28;1.40;;;;;;;;;;509069;29;1381;-83
2022/07/27 06:37:30;;;;;;;4.87;1.40;;;;;;;;;;509343;29;1488;-84
2022/07/27 06:37:51;;;;;;;4.82;1.30;;;;;;;;;;509503;29;1306;-83
2022/07/27 06:38:07;;;;;;;4.53;1.30;;;;;;;;;;509150;29;1312;-83
2022/07/27 06:38:23;;;;;;;5.25;1.40;;;;;;;;;;511417;28;1446;-83
2022/07/27 06:38:38;;;;;;;4.15;1.33;;;;;;;;;;512495;28;1314;-82
2022/07/27 06:38:54;;;;;;;4.17;1.40;;;;;;;;;;510155;29;1330;-82
2022/07/27 06:39:10;;;;;;;5.63;1.35;;;;;;;;;;510023;29;1500;-82
2022/07/27 06:39:26;;;;;;;5.07;1.27;;;;;;;;;;509639;29;1171;-83
2022/07/27 06:39:41;;;;;;;4.70;1.20;;;;;;;;;;508504;29;1378;-82
2022/07/27 06:39:58;;;;;;;6.87;1.27;;;;;;;;;;510081;29;1445;-82
2022/07/27 06:40:13;;;;;;;6.28;1.40;;;;;;;;;;508993;29;1253;-82
2022/07/27 06:40:30;;;;;;;5.33;1.40;;;;;;;;;;508732;29;1378;-82
2022/07/27 06:40:51;;;;;;;5.47;1.40;;;;;;;;;;507939;29;1208;-82
2022/07/27 06:41:06;;;;;;;6.75;1.42;;;;;;;;;;508928;29;2129;-82
2022/07/27 06:41:22;;;;;;;8.00;1.50;;;;;;;;;;509184;29;1409;-83
2022/07/27 06:41:37;;;;;;;8.02;1.40;;;;;;;;;;509600;29;1425;-83
2022/07/27 06:41:53;;;;;;;6.70;1.50;;;;;;;;;;511086;29;1468;-83
2022/07/27 06:42:08;;;;;;;5.47;1.40;;;;;;;;;;511154;29;1447;-83
2022/07/27 06:42:23;;;;;;;5.30;1.40;;;;;;;;;;510686;29;1381;-83
2022/07/27 06:42:40;;;;;;;5.43;1.40;;;;;;;;;;511193;29;1290;-83
2022/07/27 06:42:57;;;;;;;5.65;1.38;;;;;;;;;;511728;28;1439;-83
2022/07/27 06:43:12;;;;;;;5.70;1.40;;;;;;;;;;511182;29;1452;-81
2022/07/27 06:43:31;;;;;;;4.97;1.47;;;;;;;;;;512342;29;1527;-81
2022/07/27 06:43:46;;;;;;;10.27;1.90;;;;;;;;;;512218;28;1358;-82
2022/07/27 06:44:02;;;;;;;8.77;1.63;;;;;;;;;;511866;29;1678;-81
2022/07/27 06:44:17;;;;;;;4.65;1.30;;;;;;;;;;510767;29;1497;-81
2022/07/27 06:44:32;;;;;;;4.43;1.30;;;;;;;;;;510231;29;1472;-81
2022/07/27 06:44:48;;;;;;;6.27;1.30;;;;;;;;;;509833;29;1910;-81
2022/07/27 06:45:05;;;;;;;7.07;1.42;;;;;;;;;;509798;29;1338;-81
2022/07/27 06:45:21;;;;;;;6.60;1.50;;;;;;;;;;510085;29;1465;-81
2022/07/27 06:45:36;;;;;;;6.80;1.33;;;;;;;;;;508865;29;1381;-81
2022/07/27 06:45:53;;;;;;;7.03;1.40;;;;;;;;;;510087;29;1262;-81
2022/07/27 06:46:11;;;;;;;6.35;1.40;;;;;;;;;;509077;29;1452;-81
2022/07/27 06:46:26;;;;;;;7.28;1.40;;;;;;;;;;509238;29;1385;-81
2022/07/27 06:46:42;;;;;;;7.40;1.40;;;;;;;;;;506568;29;1612;-81
2022/07/27 06:46:58;;;;;;;5.60;1.35;;;;;;;;;;507492;29;1335;-81
2022/07/27 06:47:13;;;;;;;4.22;1.20;;;;;;;;;;507759;29;1253;-81
2022/07/27 06:47:28;;;;;;;4.40;1.30;;;;;;;;;;508614;29;1418;-81
2022/07/27 06:47:44;;;;;;;4.20;1.30;;;;;;;;;;507764;29;1378;-81
2022/07/27 06:47:59;;;;;;;4.75;1.38;;;;;;;;;;508380;29;1489;-81
2022/07/27 06:48:16;;;;;;;5.07;1.43;;;;;;;;;;509571;29;1457;-81
2022/07/27 06:48:31;;;;;;;5.57;1.30;;;;;;;;;;512347;28;1458;-81
2022/07/27 06:48:47;;;;;;;5.60;1.23;;;;;;;;;;510805;29;1413;-81
2022/07/27 06:49:02;;;;;;;5.73;1.33;;;;;;;;;;509877;29;1459;-82
2022/07/27 06:49:18;;;;;;;6.22;1.40;;;;;;;;;;509523;29;1396;-80
2022/07/27 06:49:33;;;;;;;6.47;1.50;;;;;;;;;;509566;29;1337;-81
2022/07/27 06:49:48;;;;;;;7.43;1.40;;;;;;;;;;509075;29;1376;-81
2022/07/27 06:50:04;;;;;;;6.33;1.30;;;;;;;;;;509108;29;1373;-81
2022/07/27 06:50:20;;;;;;;4.07;1.23;;;;;;;;;;508941;29;1324;-81
2022/07/27 06:50:36;;;;;;;3.58;1.23;;;;;;;;;;508280;29;1421;-81
2022/07/27 06:50:51;;;;;;;5.32;1.38;;;;;;;;;;509819;29;1524;-82
2022/07/27 06:51:08;;;;;;;5.57;1.40;;;;;;;;;;507329;29;1411;-82
2022/07/27 06:51:23;;;;;;;5.95;1.50;;;;;;;;;;508735;29;1417;-82
2022/07/27 06:51:39;;;;;;;5.93;1.43;;;;;;;;;;510467;29;1433;-81
2022/07/27 06:51:54;;;;;;;5.53;1.50;;;;;;;;;;511169;29;1531;-82
2022/07/27 06:52:09;;;;;;;7.67;1.60;;;;;;;;;;510271;29;1527;-82
2022/07/27 06:52:25;;;;;;;6.67;1.50;;;;;;;;;;509563;29;1408;-82
2022/07/27 06:52:40;;;;;;;5.20;1.45;;;;;;;;;;507972;29;1428;-82
2022/07/27 06:52:56;;;;;;;5.67;1.40;;;;;;;;;;508072;29;1428;-82
2022/07/27 06:53:11;;;;;;;5.82;1.40;;;;;;;;;;508992;29;1430;-82
2022/07/27 06:53:27;;;;;;;8.00;1.60;;;;;;;;;;507824;29;1422;-82
2022/07/27 06:53:42;;;;;;;7.20;1.35;;;;;;;;;;507302;29;1314;-82
2022/07/27 06:53:57;;;;;;;5.00;1.20;;;;;;;;;;507767;29;1251;-82
2022/07/27 06:54:13;;;;;;;4.00;1.23;;;;;;;;;;506856;29;1410;-82
2022/07/27 06:54:29;;;;;;;4.03;1.20;;;;;;;;;;508159;29;1426;-82
2022/07/27 06:54:44;;;;;;;6.00;1.30;;;;;;;;;;509486;29;1421;-82
2022/07/27 06:55:00;;;;;;;6.77;1.47;;;;;;;;;;509776;29;1348;-82
2022/07/27 06:55:16;;;;;;;4.88;1.40;;;;;;;;;;510071;29;1480;-82
2022/07/27 06:55:31;;;;;;;3.83;1.20;;;;;;;;;;509489;29;1282;-82
2022/07/27 06:55:48;;;;;;;5.60;1.27;;;;;;;;;;511299;28;1266;-82
2022/07/27 06:56:04;;;;;;;6.95;1.45;;;;;;;;;;512272;28;1491;-82
2022/07/27 06:56:19;;;;;;;7.57;1.60;;;;;;;;;;513052;28;1778;-82
2022/07/27 06:56:36;;;;;;;7.00;1.60;;;;;;;;;;513375;28;1455;-82
2022/07/27 06:56:51;;;;;;;6.00;1.40;;;;;;;;;;512919;28;1561;-82
2022/07/27 06:57:06;;;;;;;5.35;1.33;;;;;;;;;;512864;28;1483;-82
2022/07/27 06:57:22;;;;;;;5.10;1.40;;;;;;;;;;512663;28;1333;-82
2022/07/27 06:57:37;;;;;;;6.35;1.42;;;;;;;;;;511082;29;1515;-81
2022/07/27 06:57:52;;;;;;;6.40;1.40;;;;;;;;;;510698;29;1447;-82
2022/07/27 06:58:08;;;;;;;5.67;1.50;;;;;;;;;;508079;29;1382;-82
2022/07/27 06:58:24;;;;;;;5.70;1.50;;;;;;;;;;508675;29;1383;-82
2022/07/27 06:58:39;;;;;;;5.67;1.50;;;;;;;;;;508058;29;1504;-82
2022/07/27 06:58:55;;;;;;;5.90;1.55;;;;;;;;;;507843;29;1390;-82
2022/07/27 06:59:11;;;;;;;6.05;1.58;;;;;;;;;;509260;29;1452;-82
2022/07/27 06:59:26;;;;;;;7.20;1.57;;;;;;;;;;508689;29;1425;-81
2022/07/27 06:59:42;;;;;;;7.15;1.50;;;;;;;;;;509952;29;1445;-82
2022/07/27 06:59:57;;;;;;;6.20;1.53;;;;;;;;;;510295;29;1409;-82
2022/07/27 07:00:13;;;;;;;6.47;1.50;;;;;;;;;;507530;29;1434;-82
2022/07/27 07:00:29;;;;;;;6.93;1.38;;;;;;;;;;507748;29;1537;-82
2022/07/27 07:00:44;;;;;;;7.30;1.40;;;;;;;;;;507876;29;1260;-82
2022/07/27 07:01:01;;;;;;;6.00;1.50;;;;;;;;;;506147;29;1415;-82
2022/07/27 07:01:16;;;;;;;4.32;1.60;;;;;;;;;;506255;29;1415;-82
2022/07/27 07:01:32;;;;;;;4.65;1.52;;;;;;;;;;507282;29;1802;-82
2022/07/27 07:01:47;;;;;;;6.30;1.60;;;;;;;;;;507458;29;1450;-82
2022/07/27 07:02:03;;;;;;;5.85;1.40;;;;;;;;;;510943;29;1400;-82
2022/07/27 07:02:18;;;;;;;5.33;1.23;;;;;;;;;;511715;29;1193;-82
2022/07/27 07:02:34;;;;;;;6.40;1.45;;;;;;;;;;511805;28;1546;-82
2022/07/27 07:03:01;;;;;;;5.90;1.40;;;;;;;;;;511219;29;1460;-82
2022/07/27 07:03:17;;;;;;;6.28;1.40;;;;;;;;;;508699;29;1413;-82
2022/07/27 07:03:33;;;;;;;6.20;1.27;;;;;;;;;;509762;29;1388;-82
2022/07/27 07:03:49;;;;;;;4.70;1.23;;;;;;;;;;510339;29;1177;-82
2022/07/27 07:04:04;;;;;;;5.53;1.30;;;;;;;;;;509395;29;1401;-82
2022/07/27 07:04:19;;;;;;;5.57;1.35;;;;;;;;;;508854;29;1468;-82
2022/07/27 07:04:35;;;;;;;5.57;1.40;;;;;;;;;;509331;29;1456;-82
2022/07/27 07:04:50;;;;;;;5.43;1.27;;;;;;;;;;510998;29;1971;-82
2022/07/27 07:05:06;;;;;;;5.57;1.35;;;;;;;;;;509665;29;1429;-82
2022/07/27 07:05:22;;;;;;;6.80;1.63;;;;;;;;;;510175;29;1462;-82
2022/07/27 07:05:46;;;;;;;6.70;1.60;;;;;;;;;;509960;29;1317;-82
2022/07/27 07:06:01;;;;;;;4.82;1.40;;;;;;;;;;508380;29;1425;-82
2022/07/27 07:06:17;;;;;;;6.03;1.33;;;;;;;;;;509021;29;1356;-82
2022/07/27 07:06:32;;;;;;;5.27;1.27;;;;;;;;;;507432;29;1744;-82
2022/07/27 07:06:47;;;;;;;4.80;1.30;;;;;;;;;;507659;29;1415;-82
2022/07/27 07:07:03;;;;;;;4.50;1.30;;;;;;;;;;507896;29;1424;-82
2022/07/27 07:07:20;;;;;;;4.60;1.30;;;;;;;;;;507547;29;1478;-82
2022/07/27 07:07:35;;;;;;;6.65;1.40;;;;;;;;;;507268;29;1575;-82
2022/07/27 07:07:52;;;;;;;8.25;1.48;;;;;;;;;;506801;29;1469;-82
2022/07/27 07:08:10;;;;;;;7.43;1.45;;;;;;;;;;508609;29;1261;-82
2022/07/27 07:08:26;;;;;;;8.75;1.50;;;;;;;;;;509615;29;1358;-82
2022/07/27 07:08:41;;;;;;;7.50;1.40;;;;;;;;;;511582;28;1529;-82
2022/07/27 07:08:57;;;;;;;6.63;1.50;;;;;;;;;;510334;29;1419;-82
2022/07/27 07:09:12;;;;;;;5.57;1.40;;;;;;;;;;509863;29;1376;-82
2022/07/27 07:09:28;;;;;;;5.95;1.30;;;;;;;;;;509988;29;1242;-82
2022/07/27 07:09:44;;;;;;;6.05;1.27;;;;;;;;;;510093;29;1380;-82
2022/07/27 07:09:59;;;;;;;5.07;1.20;;;;;;;;;;509953;29;1313;-82
2022/07/27 07:10:14;;;;;;;4.72;1.30;;;;;;;;;;509912;29;1428;-82
2022/07/27 07:10:30;;;;;;;5.87;1.40;;;;;;;;;;509464;29;1282;-82
2022/07/27 07:10:46;;;;;;;5.75;1.30;;;;;;;;;;507506;29;1489;-82
2022/07/27 07:11:01;;;;;;;4.77;1.20;;;;;;;;;;506543;29;1427;-82
2022/07/27 07:11:17;;;;;;;5.30;1.25;;;;;;;;;;508814;29;1367;-82
2022/07/27 07:11:32;;;;;;;5.60;1.30;;;;;;;;;;509531;29;1306;-82
2022/07/27 07:11:48;;;;;;;5.82;1.30;;;;;;;;;;508206;29;1455;-82
2022/07/27 07:12:03;;;;;;;6.83;1.40;;;;;;;;;;510415;29;1389;-82
2022/07/27 07:12:21;;;;;;;7.93;1.50;;;;;;;;;;510077;29;849;-82
2022/07/27 07:12:36;;;;;;;6.80;1.45;;;;;;;;;;510464;29;1373;-82
2022/07/27 07:12:55;;;;;;;7.93;1.58;;;;;;;;;;512281;29;1503;-82
2022/07/27 07:13:11;;;;;;;6.60;1.50;;;;;;;;;;509934;29;1486;-82
2022/07/27 07:13:26;;;;;;;6.70;1.47;;;;;;;;;;510068;29;1312;-82
2022/07/27 07:13:42;;;;;;;6.22;1.38;;;;;;;;;;509820;29;1582;-82
2022/07/27 07:13:57;;;;;;;8.87;1.30;;;;;;;;;;510450;29;1531;-82
2022/07/27 07:14:13;;;;;;;9.73;1.40;;;;;;;;;;511090;29;1300;-82
2022/07/27 07:14:28;;;;;;;5.47;1.23;;;;;;;;;;508088;29;1440;-82
2022/07/27 07:14:44;;;;;;;5.03;1.33;;;;;;;;;;507576;29;1369;-82
2022/07/27 07:15:00;;;;;;;6.43;1.60;;;;;;;;;;508108;29;1460;-82
2022/07/27 07:15:15;;;;;;;5.10;1.50;;;;;;;;;;509397;29;1435;-83
2022/07/27 07:15:31;;;;;;;4.85;1.45;;;;;;;;;;509074;29;1390;-83
2022/07/27 07:15:46;;;;;;;6.37;1.40;;;;;;;;;;509539;29;1346;-82
2022/07/27 07:16:02;;;;;;;6.95;1.70;;;;;;;;;;508571;29;1394;-82
2022/07/27 07:16:18;;;;;;;6.72;1.77;;;;;;;;;;510164;29;1214;-82
2022/07/27 07:16:33;;;;;;;7.00;1.50;;;;;;;;;;511696;28;1644;-83
2022/07/27 07:16:49;;;;;;;7.25;1.50;;;;;;;;;;511331;29;1392;-83
2022/07/27 07:17:04;;;;;;;6.47;1.43;;;;;;;;;;511250;28;1365;-83
2022/07/27 07:17:19;;;;;;;5.13;1.30;;;;;;;;;;512017;29;1269;-83
2022/07/27 07:17:35;;;;;;;5.03;1.40;;;;;;;;;;511282;29;1467;-83
2022/07/27 07:17:53;;;;;;;5.90;1.52;;;;;;;;;;509215;29;1544;-83
2022/07/27 07:18:10;;;;;;;6.35;1.60;;;;;;;;;;509315;29;1231;-83
2022/07/27 07:18:26;;;;;;;5.45;1.40;;;;;;;;;;508622;29;1597;-83
2022/07/27 07:18:42;;;;;;;5.28;1.20;;;;;;;;;;509121;29;1428;-83
2022/07/27 07:18:58;;;;;;;5.70;1.30;;;;;;;;;;507627;29;1616;-83
2022/07/27 07:19:13;;;;;;;6.33;1.20;;;;;;;;;;505679;29;1387;-83
2022/07/27 07:19:29;;;;;;;4.90;1.08;;;;;;;;;;506620;29;1295;-83
2022/07/27 07:19:44;;;;;;;4.73;1.30;;;;;;;;;;507275;29;1414;-83
2022/07/27 07:20:00;;;;;;;6.32;1.30;;;;;;;;;;169090;29;10000508;-83
2022/07/27 07:20:15;;;;;;;5.70;1.20;;;;;;;;;;508171;29;1429;-83
2022/07/27 07:20:31;;;;;;;4.95;1.23;;;;;;;;;;507634;29;1394;-83
2022/07/27 07:20:46;;;;;;;5.67;1.33;;;;;;;;;;507043;29;1445;-83
2022/07/27 07:21:02;;;;;;;5.85;1.35;;;;;;;;;;507238;29;1437;-83
2022/07/27 07:21:17;;;;;;;6.03;1.33;;;;;;;;;;509290;29;1413;-83
2022/07/27 07:21:33;;;;;;;5.53;1.35;;;;;;;;;;511451;29;1357;-83
2022/07/27 07:21:48;;;;;;;5.50;1.40;;;;;;;;;;512020;29;1374;-83
2022/07/27 07:22:04;;;;;;;7.23;1.47;;;;;;;;;;511836;29;1409;-83
2022/07/27 07:22:19;;;;;;;6.55;1.40;;;;;;;;;;511721;29;1352;-83
2022/07/27 07:22:35;;;;;;;6.53;1.40;;;;;;;;;;509068;29;1417;-83
2022/07/27 07:22:50;;;;;;;6.18;1.33;;;;;;;;;;508381;29;1365;-83
2022/07/27 07:23:06;;;;;;;5.07;1.47;;;;;;;;;;509021;29;1492;-82
2022/07/27 07:23:24;;;;;;;5.90;1.70;;;;;;;;;;508700;29;1503;-82
2022/07/27 07:23:40;;;;;;;5.53;1.50;;;;;;;;;;507709;29;1369;-82
2022/07/27 07:23:55;;;;;;;5.03;1.30;;;;;;;;;;507839;29;1456;-82
2022/07/27 07:24:12;;;;;;;5.87;1.30;;;;;;;;;;506884;29;1418;-83
2022/07/27 07:24:29;;;;;;;6.32;1.40;;;;;;;;;;509376;29;1401;-83
2022/07/27 07:24:44;;;;;;;5.78;1.40;;;;;;;;;;511496;29;1966;-83
2022/07/27 07:25:00;;;;;;;5.17;1.23;;;;;;;;;;512312;28;1399;-83
2022/07/27 07:25:16;;;;;;;5.00;1.30;;;;;;;;;;509054;29;1431;-83
2022/07/27 07:25:33;;;;;;;6.15;1.40;;;;;;;;;;509591;29;1417;-83
2022/07/27 07:25:48;;;;;;;6.47;1.45;;;;;;;;;;511215;29;1385;-85
2022/07/27 07:26:04;;;;;;;5.53;1.40;;;;;;;;;;511705;28;1323;-83
2022/07/27 07:26:19;;;;;;;5.20;1.35;;;;;;;;;;510684;29;1381;-87
2022/07/27 07:26:36;;;;;;;6.33;1.57;;;;;;;;;;509459;29;1492;-82
2022/07/27 07:26:51;;;;;;;6.55;1.50;;;;;;;;;;509218;29;1493;-82
2022/07/27 07:27:07;;;;;;;6.13;1.40;;;;;;;;;;510823;29;1429;-83
2022/07/27 07:27:24;;;;;;;4.97;1.20;;;;;;;;;;511950;29;1615;-83
2022/07/27 07:27:40;;;;;;;4.55;1.30;;;;;;;;;;508445;29;1383;-83
2022/07/27 07:27:55;;;;;;;5.20;1.30;;;;;;;;;;508546;29;1287;-83
2022/07/27 07:28:11;;;;;;;5.53;1.30;;;;;;;;;;507418;29;1444;-83
2022/07/27 07:28:26;;;;;;;6.38;1.40;;;;;;;;;;507580;29;1451;-83
2022/07/27 07:28:42;;;;;;;7.57;1.57;;;;;;;;;;508375;29;1599;-83
2022/07/27 07:28:58;;;;;;;6.32;1.42;;;;;;;;;;508687;29;1370;-83
2022/07/27 07:29:16;;;;;;;6.03;1.40;;;;;;;;;;508005;29;1480;-83
2022/07/27 07:29:31;;;;;;;6.75;1.40;;;;;;;;;;509743;29;1457;-83
2022/07/27 07:29:47;;;;;;;5.97;1.30;;;;;;;;;;509029;29;1456;-83
2022/07/27 07:30:03;;;;;;;6.55;1.60;;;;;;;;;;509905;29;1373;-83
2022/07/27 07:30:19;;;;;;;8.40;1.60;;;;;;;;;;509121;29;1274;-82
2022/07/27 07:30:35;;;;;;;8.10;1.50;;;;;;;;;;507760;29;1581;-82
2022/07/27 07:30:50;;;;;;;6.47;1.40;;;;;;;;;;509844;29;1290;-82
2022/07/27 07:31:05;;;;;;;5.93;1.30;;;;;;;;;;510231;29;1334;-82
2022/07/27 07:31:21;;;;;;;6.23;1.17;;;;;;;;;;510497;29;1445;-83
2022/07/27 07:31:37;;;;;;;6.20;1.30;;;;;;;;;;510333;29;1413;-82
2022/07/27 07:31:52;;;;;;;6.80;1.50;;;;;;;;;;509404;29;1468;-82
2022/07/27 07:32:08;;;;;;;6.27;1.50;;;;;;;;;;509683;29;1388;-83
2022/07/27 07:32:24;;;;;;;5.50;1.27;;;;;;;;;;509899;29;1534;-82
2022/07/27 07:32:39;;;;;;;5.57;1.20;;;;;;;;;;512244;29;1162;-83
2022/07/27 07:32:55;;;;;;;5.37;1.30;;;;;;;;;;510533;29;1278;-83
2022/07/27 07:33:11;;;;;;;5.10;1.35;;;;;;;;;;509737;29;1393;-82
2022/07/27 07:33:26;;;;;;;5.73;1.33;;;;;;;;;;510299;29;1403;-83
2022/07/27 07:33:42;;;;;;;5.55;1.30;;;;;;;;;;511544;28;1466;-83
2022/07/27 07:33:58;;;;;;;7.05;1.30;;;;;;;;;;511891;29;1458;-83
2022/07/27 07:34:13;;;;;;;7.22;1.40;;;;;;;;;;509762;29;1523;-83
2022/07/27 07:34:29;;;;;;;4.57;1.40;;;;;;;;;;507343;29;1427;-83
2022/07/27 07:34:44;;;;;;;5.50;1.40;;;;;;;;;;507580;29;1324;-83
2022/07/27 07:35:02;;;;;;;4.97;1.30;;;;;;;;;;507084;29;1447;-83
2022/07/27 07:35:18;;;;;;;3.75;1.15;;;;;;;;;;506669;29;1629;-83
2022/07/27 07:35:33;;;;;;;4.45;1.30;;;;;;;;;;507432;29;1461;-82
2022/07/27 07:35:49;;;;;;;5.97;1.30;;;;;;;;;;507065;29;1595;-82
2022/07/27 07:36:05;;;;;;;5.50;1.20;;;;;;;;;;505892;29;1505;-82
2022/07/27 07:36:20;;;;;;;5.23;1.50;;;;;;;;;;507193;29;1448;-82
2022/07/27 07:36:35;;;;;;;5.28;1.40;;;;;;;;;;509486;29;1281;-83
2022/07/27 07:36:51;;;;;;;5.87;1.40;;;;;;;;;;509861;29;1459;-83
2022/07/27 07:37:06;;;;;;;5.45;1.50;;;;;;;;;;510392;29;1450;-82
2022/07/27 07:37:24;;;;;;;4.23;1.40;;;;;;;;;;508710;29;1321;-83
2022/07/27 07:37:40;;;;;;;4.60;1.40;;;;;;;;;;509923;29;1266;-83
2022/07/27 07:37:55;;;;;;;7.03;1.40;;;;;;;;;;511076;29;1426;-83
2022/07/27 07:38:10;;;;;;;6.50;1.33;;;;;;;;;;509076;29;1480;-83
2022/07/27 07:38:26;;;;;;;4.83;1.33;;;;;;;;;;508199;29;1729;-83
2022/07/27 07:38:42;;;;;;;4.57;1.30;;;;;;;;;;508274;29;1738;-83
2022/07/27 07:38:58;;;;;;;4.72;1.40;;;;;;;;;;508628;29;1468;-83
2022/07/27 07:39:14;;;;;;;5.20;1.30;;;;;;;;;;511370;29;1281;-83
2022/07/27 07:39:29;;;;;;;7.07;1.40;;;;;;;;;;510075;29;1257;-83
2022/07/27 07:39:46;;;;;;;7.60;1.50;;;;;;;;;;509926;29;1377;-83
2022/07/27 07:40:03;;;;;;;5.68;1.50;;;;;;;;;;510750;29;1358;-83
2022/07/27 07:40:19;;;;;;;6.78;1.65;;;;;;;;;;510687;29;1468;-82
2022/07/27 07:40:35;;;;;;;4.65;1.52;;;;;;;;;;507386;29;1396;-82
2022/07/27 07:40:50;;;;;;;6.17;1.53;;;;;;;;;;507356;29;1254;-82
2022/07/27 07:41:05;;;;;;;7.30;1.60;;;;;;;;;;507741;29;1282;-82
2022/07/27 07:41:24;;;;;;;5.27;1.30;;;;;;;;;;504761;29;1331;-82
2022/07/27 07:41:39;;;;;;;4.63;1.20;;;;;;;;;;505233;29;1686;-82
2022/07/27 07:41:54;;;;;;;5.47;1.40;;;;;;;;;;505112;29;1325;-82
2022/07/27 07:42:10;;;;;;;6.53;1.43;;;;;;;;;;506254;29;1449;-82
2022/07/27 07:42:26;;;;;;;5.50;1.30;;;;;;;;;;506059;29;1419;-83
2022/07/27 07:43:01;;;;;;;4.75;1.13;;;;;;;;;;508987;29;1532;-83
2022/07/27 07:43:16;;;;;;;4.80;1.45;;;;;;;;;;510601;29;1357;-82
2022/07/27 07:43:34;;;;;;;4.87;1.60;;;;;;;;;;511652;29;1436;-82
2022/07/27 07:43:50;;;;;;;4.68;1.50;;;;;;;;;;510539;29;1296;-82
2022/07/27 07:44:05;;;;;;;5.27;1.43;;;;;;;;;;507773;29;1365;-82
2022/07/27 07:44:21;;;;;;;6.22;1.50;;;;;;;;;;507568;29;1563;-82
2022/07/27 07:44:36;;;;;;;4.87;1.33;;;;;;;;;;508597;29;1485;-82
2022/07/27 07:44:52;;;;;;;4.55;1.10;;;;;;;;;;505760;29;1972;-83
2022/07/27 07:45:07;;;;;;;6.00;1.20;;;;;;;;;;508353;29;1429;-83
2022/07/27 07:45:24;;;;;;;6.47;1.48;;;;;;;;;;510296;29;1647;-83
2022/07/27 07:45:41;;;;;;;6.35;1.40;;;;;;;;;;511264;29;1380;-82
2022/07/27 07:45:57;;;;;;;6.13;1.40;;;;;;;;;;509019;29;1401;-82
2022/07/27 07:46:12;;;;;;;6.33;1.60;;;;;;;;;;509008;29;1492;-82
2022/07/27 07:46:28;;;;;;;4.77;1.40;;;;;;;;;;509426;29;1449;-83
2022/07/27 07:46:43;;;;;;;5.13;1.20;;;;;;;;;;510124;29;1550;-83
2022/07/27 07:46:59;;;;;;;4.95;1.30;;;;;;;;;;510092;29;1525;-83
2022/07/27 07:47:14;;;;;;;6.33;1.47;;;;;;;;;;510067;29;1322;-82
2022/07/27 07:47:30;;;;;;;7.22;1.42;;;;;;;;;;509858;29;1401;-82
2022/07/27 07:47:45;;;;;;;4.20;1.23;;;;;;;;;;510450;29;1242;-82
2022/07/27 07:48:00;;;;;;;3.90;1.25;;;;;;;;;;512598;29;1392;-82
2022/07/27 07:48:16;;;;;;;4.83;1.30;;;;;;;;;;508815;29;1414;-82
2022/07/27 07:48:31;;;;;;;5.63;1.40;;;;;;;;;;508647;29;1441;-82
2022/07/27 07:48:47;;;;;;;5.05;1.40;;;;;;;;;;508192;29;1449;-83
2022/07/27 07:49:04;;;;;;;4.57;1.37;;;;;;;;;;510096;29;1306;-83
2022/07/27 07:49:21;;;;;;;4.65;1.40;;;;;;;;;;510230;29;1560;-83
2022/07/27 07:49:37;;;;;;;3.72;1.20;;;;;;;;;;509948;29;1218;-82
2022/07/27 07:49:52;;;;;;;4.67;1.30;;;;;;;;;;509783;29;1417;-83
2022/07/27 07:50:08;;;;;;;5.63;1.30;;;;;;;;;;510171;29;1298;-83
2022/07/27 07:50:24;;;;;;;5.68;1.20;;;;;;;;;;511764;28;1421;-83
2022/07/27 07:50:39;;;;;;;5.72;1.40;;;;;;;;;;513134;28;1404;-82
2022/07/27 07:50:55;;;;;;;6.97;1.48;;;;;;;;;;512308;29;1364;-82
2022/07/27 07:51:11;;;;;;;7.47;1.30;;;;;;;;;;512196;29;1666;-82
2022/07/27 07:51:26;;;;;;;5.38;1.20;;;;;;;;;;511922;29;1490;-82
2022/07/27 07:51:42;;;;;;;3.72;1.20;;;;;;;;;;510872;29;1448;-83
2022/07/27 07:51:57;;;;;;;4.07;1.10;;;;;;;;;;509359;29;1500;-83
2022/07/27 07:52:13;;;;;;;4.17;1.17;;;;;;;;;;511460;29;1487;-83
2022/07/27 07:52:28;;;;;;;5.00;1.20;;;;;;;;;;510615;28;1388;-83
2022/07/27 07:52:47;;;;;;;5.53;1.20;;;;;;;;;;511063;29;1471;-83
2022/07/27 07:53:03;;;;;;;4.82;1.20;;;;;;;;;;508472;29;1065;-83
2022/07/27 07:53:19;;;;;;;5.95;1.40;;;;;;;;;;507565;29;1342;-83
2022/07/27 07:53:35;;;;;;;5.95;1.50;;;;;;;;;;506478;29;1472;-83
2022/07/27 07:53:50;;;;;;;5.30;1.33;;;;;;;;;;504529;29;1354;-83
2022/07/27 07:54:06;;;;;;;5.38;1.30;;;;;;;;;;505426;29;1351;-83
2022/07/27 07:54:21;;;;;;;7.93;1.50;;;;;;;;;;505867;29;1354;-82
2022/07/27 07:54:37;;;;;;;8.18;1.40;;;;;;;;;;505709;29;1363;-82
2022/07/27 07:54:52;;;;;;;8.33;1.40;;;;;;;;;;506574;29;1433;-83
2022/07/27 07:55:08;;;;;;;8.10;1.67;;;;;;;;;;508416;29;1313;-83
2022/07/27 07:55:26;;;;;;;6.55;1.63;;;;;;;;;;507644;29;1457;-82
2022/07/27 07:55:41;;;;;;;6.82;1.30;;;;;;;;;;509927;29;1390;-83
2022/07/27 07:55:58;;;;;;;5.43;1.10;;;;;;;;;;509988;29;1400;-83
2022/07/27 07:56:14;;;;;;;4.88;1.20;;;;;;;;;;509011;29;1471;-82
2022/07/27 07:56:29;;;;;;;5.40;1.30;;;;;;;;;;509796;29;1523;-82
2022/07/27 07:56:45;;;;;;;5.77;1.30;;;;;;;;;;509482;29;1467;-82
2022/07/27 07:57:00;;;;;;;5.85;1.40;;;;;;;;;;509031;29;1425;-83
2022/07/27 07:57:16;;;;;;;6.20;1.40;;;;;;;;;;509754;29;1342;-83
2022/07/27 07:57:31;;;;;;;5.80;1.40;;;;;;;;;;510439;29;1412;-82
2022/07/27 07:57:46;;;;;;;5.47;1.20;;;;;;;;;;510889;29;1435;-82
2022/07/27 07:58:02;;;;;;;6.80;1.30;;;;;;;;;;511733;28;1336;-83
2022/07/27 07:58:18;;;;;;;6.28;1.40;;;;;;;;;;512228;28;1400;-83
2022/07/27 07:58:34;;;;;;;6.57;1.30;;;;;;;;;;510129;29;1417;-83
2022/07/27 07:58:49;;;;;;;8.48;1.30;;;;;;;;;;510592;29;1456;-82
2022/07/27 07:59:04;;;;;;;7.10;1.43;;;;;;;;;;508317;29;1417;-82
2022/07/27 07:59:20;;;;;;;5.37;1.40;;;;;;;;;;511322;29;1359;-82
2022/07/27 07:59:35;;;;;;;5.80;1.20;;;;;;;;;;509211;29;1449;-83
2022/07/27 07:59:51;;;;;;;5.73;1.17;;;;;;;;;;509764;29;1475;-83
2022/07/27 08:00:08;;;;;;;6.20;1.20;;;;;;;;;;509485;29;1499;-82
2022/07/27 08:00:24;;;;;;;5.13;1.10;;;;;;;;;;509333;29;1564;-83
2022/07/27 08:00:40;;;;;;;3.88;1.02;;;;;;;;;;511630;29;1191;-83
2022/07/27 08:00:56;;;;;;;3.33;1.10;;;;;;;;;;508862;29;1435;-83
2022/07/27 08:01:11;;;;;;;4.78;1.20;;;;;;;;;;508933;29;1303;-83
2022/07/27 08:01:26;;;;;;;5.70;1.10;;;;;;;;;;509695;29;1425;-82
2022/07/27 08:01:42;;;;;;;5.10;1.00;;;;;;;;;;510811;29;1269;-82
2022/07/27 08:01:58;;;;;;;5.55;1.05;;;;;;;;;;509132;29;1400;-82
2022/07/27 08:02:14;;;;;;;6.53;1.20;;;;;;;;;;510200;29;1424;-83
2022/07/27 08:02:30;;;;;;;6.97;1.25;;;;;;;;;;510714;29;1634;-83
2022/07/27 08:02:51;;;;;;;7.88;1.20;;;;;;;;;;508483;29;1471;-83
2022/07/27 08:03:06;;;;;;;7.53;1.35;;;;;;;;;;508859;29;1416;-83
2022/07/27 08:03:22;;;;;;;5.83;1.30;;;;;;;;;;508113;29;1484;-83
2022/07/27 08:03:37;;;;;;;5.20;1.33;;;;;;;;;;508707;29;1453;-82
2022/07/27 08:03:53;;;;;;;5.27;1.30;;;;;;;;;;512083;29;1547;-83
2022/07/27 08:04:08;;;;;;;6.43;1.30;;;;;;;;;;511222;29;1384;-83
2022/07/27 08:04:23;;;;;;;7.75;1.30;;;;;;;;;;511664;29;1487;-83
2022/07/27 08:04:39;;;;;;;6.87;1.10;;;;;;;;;;512293;28;1368;-82
2022/07/27 08:04:54;;;;;;;5.05;1.00;;;;;;;;;;510024;29;1907;-82
2022/07/27 08:05:10;;;;;;;4.23;1.07;;;;;;;;;;508674;29;1507;-82
2022/07/27 08:05:26;;;;;;;6.05;1.20;;;;;;;;;;508711;29;1327;-82
2022/07/27 08:05:42;;;;;;;5.60;1.10;;;;;;;;;;507710;29;1394;-82
2022/07/27 08:05:57;;;;;;;5.10;1.13;;;;;;;;;;508272;29;1280;-82
2022/07/27 08:06:13;;;;;;;5.30;1.20;;;;;;;;;;508346;29;1314;-82
2022/07/27 08:06:28;;;;;;;4.03;1.10;;;;;;;;;;506611;29;1498;-82
2022/07/27 08:06:44;;;;;;;4.15;1.15;;;;;;;;;;505187;29;1384;-82
2022/07/27 08:07:00;;;;;;;4.63;1.10;;;;;;;;;;506559;29;1142;-83
2022/07/27 08:07:15;;;;;;;4.03;1.00;;;;;;;;;;508356;29;775;-82
2022/07/27 08:07:31;;;;;;;4.32;1.00;;;;;;;;;;508950;29;1568;-82
2022/07/27 08:07:47;;;;;;;4.37;1.00;;;;;;;;;;510543;29;905;-82
2022/07/27 08:08:02;;;;;;;4.75;1.17;;;;;;;;;;510555;29;1433;-82
2022/07/27 08:08:18;;;;;;;5.75;1.25;;;;;;;;;;508673;29;1366;-83
2022/07/27 08:08:33;;;;;;;4.65;1.10;;;;;;;;;;510265;29;1270;-83
2022/07/27 08:08:49;;;;;;;3.63;1.00;;;;;;;;;;511683;28;988;-83
2022/07/27 08:09:05;;;;;;;5.33;1.17;;;;;;;;;;511056;29;1468;-80
2022/07/27 08:09:25;;;;;;;7.10;1.40;;;;;;;;;;508207;29;1366;-80
2022/07/27 08:09:40;;;;;;;6.72;1.30;;;;;;;;;;506565;29;1678;-80
2022/07/27 08:09:56;;;;;;;6.00;1.10;;;;;;;;;;506754;29;1407;-80
2022/07/27 08:10:13;;;;;;;6.63;1.20;;;;;;;;;;507435;29;1007;-81
2022/07/27 08:10:29;;;;;;;5.75;1.27;;;;;;;;;;507917;29;1136;-81
2022/07/27 08:10:44;;;;;;;4.20;1.10;;;;;;;;;;507892;29;1517;-80
2022/07/27 08:10:59;;;;;;;4.03;1.00;;;;;;;;;;507912;29;1449;-80
2022/07/27 08:11:15;;;;;;;3.87;1.00;;;;;;;;;;509508;29;1437;-81
2022/07/27 08:11:30;;;;;;;3.33;1.00;;;;;;;;;;508927;29;1277;-81
2022/07/27 08:11:46;;;;;;;5.30;1.10;;;;;;;;;;509617;29;1351;-81
2022/07/27 08:12:02;;;;;;;7.73;1.10;;;;;;;;;;510519;29;1444;-81
2022/07/27 08:12:17;;;;;;;6.05;1.08;;;;;;;;;;509733;29;1490;-81
2022/07/27 08:12:34;;;;;;;5.03;1.10;;;;;;;;;;508355;29;1163;-81
2022/07/27 08:12:52;;;;;;;5.28;1.27;;;;;;;;;;509177;28;1103;-81
2022/07/27 08:13:08;;;;;;;4.85;1.20;;;;;;;;;;511010;28;1050;-81
2022/07/27 08:13:23;;;;;;;4.37;1.00;;;;;;;;;;512506;28;1313;-81